createdAt,value
2019-03-24T00:04:13.826Z,50.63
2019-03-24T00:07:05.057Z,50.41
2019-03-24T00:10:07.654Z,50.80
2019-03-24T00:12:40.157Z,50.38
2019-03-24T00:15:42.166Z,50.61
2019-03-24T00:18:15.230Z,51.42
2019-03-24T00:21:16.939Z,52.02
2019-03-24T00:23:50.968Z,52.19
2019-03-24T00:26:52.927Z,51.10
2019-03-24T00:29:27.065Z,50.84
2019-03-24T00:32:29.998Z,51.00
2019-03-24T00:35:02.751Z,50.86
2019-03-24T00:37:54.011Z,50.52
2019-03-24T00:40:55.188Z,50.73
2019-03-24T00:43:46.435Z,52.46
2019-03-24T00:46:37.786Z,52.54
2019-03-24T00:49:28.987Z,53.59
2019-03-24T00:54:56.476Z,56.92
2019-03-24T01:09:08.923Z,60.92
2019-03-24T01:18:05.856Z,56.76
2019-03-24T01:26:55.845Z,54.27
2019-03-24T01:29:41.159Z,53.13
2019-03-24T01:32:12.981Z,58.32
2019-03-24T01:35:15.452Z,61.19
2019-03-24T01:37:51.615Z,57.98
2019-03-24T01:40:42.774Z,58.51
2019-03-24T01:43:36.178Z,60.30
2019-03-24T01:46:10.074Z,60.28
2019-03-24T01:49:12.181Z,61.09
2019-03-24T01:57:14.538Z,59.80
2019-03-24T02:00:06.215Z,60.75
2019-03-24T02:02:57.381Z,58.58
2019-03-24T02:05:47.992Z,55.97
2019-03-24T02:14:11.054Z,58.33
2019-03-24T02:17:02.201Z,56.08
2019-03-24T02:19:53.352Z,54.51
2019-03-24T02:25:28.446Z,53.20
2019-03-24T02:28:19.571Z,53.46
2019-03-24T02:31:22.248Z,53.97
2019-03-24T02:34:15.305Z,53.78
2019-03-24T02:37:17.427Z,53.75
2019-03-24T02:40:09.276Z,54.75
2019-03-24T02:43:00.426Z,53.95
2019-03-24T02:45:51.561Z,55.09
2019-03-24T02:51:27.443Z,53.47
2019-03-24T02:54:18.612Z,53.09
2019-03-24T02:57:20.492Z,53.49
2019-03-24T03:02:36.511Z,54.29
2019-03-24T03:05:27.639Z,54.50
2019-03-24T03:11:04.624Z,56.21
2019-03-24T03:17:14.305Z,55.95
2019-03-24T03:19:46.570Z,56.08
2019-03-24T03:22:48.933Z,55.35
2019-03-24T03:25:32.309Z,56.34
2019-03-24T03:28:06.568Z,55.73
2019-03-24T03:31:27.939Z,56.04
2019-03-24T03:34:04.225Z,55.52
2019-03-24T03:36:43.089Z,54.88
2019-03-24T03:45:44.073Z,54.79
2019-03-24T03:48:37.499Z,59.19
2019-03-24T03:54:13.792Z,61.96
2019-03-24T03:57:16.161Z,62.61
2019-03-24T04:00:00.608Z,61.19
2019-03-24T04:02:44.212Z,59.76
2019-03-24T04:08:03.775Z,64.29
2019-03-24T04:11:05.631Z,62.91
2019-03-24T04:13:49.770Z,64.33
2019-03-24T04:16:23.702Z,65.25
2019-03-24T04:19:14.928Z,65.31
2019-03-24T04:22:18.393Z,64.34
2019-03-24T04:28:07.526Z,67.72
2019-03-24T04:30:50.103Z,66.73
2019-03-24T04:39:02.945Z,63.21
2019-03-24T04:41:47.099Z,63.72
2019-03-24T04:44:39.686Z,60.27
2019-03-24T04:47:30.814Z,58.44
2019-03-24T04:50:32.981Z,56.23
2019-03-24T04:53:17.769Z,57.88
2019-03-24T04:56:11.340Z,58.71
2019-03-24T04:59:13.338Z,56.14
2019-03-24T05:01:45.234Z,55.43
2019-03-24T05:04:36.423Z,54.53
2019-03-24T05:10:30.937Z,58.93
2019-03-24T05:13:33.514Z,60.16
2019-03-24T05:16:05.548Z,58.93
2019-03-24T05:21:42.435Z,59.97
2019-03-24T05:30:13.633Z,61.07
2019-03-24T05:32:56.790Z,60.85
2019-03-24T05:38:14.815Z,61.42
2019-03-24T05:44:12.682Z,61.15
2019-03-24T05:47:03.847Z,60.73
2019-03-24T05:49:55.029Z,60.40
2019-03-24T05:55:46.446Z,55.15
2019-03-24T05:58:37.093Z,54.71
2019-03-24T06:01:28.318Z,56.10
2019-03-24T06:04:30.910Z,57.35
2019-03-24T06:07:16.573Z,56.97
2019-03-24T06:18:21.843Z,55.78
2019-03-24T06:23:58.011Z,57.61
2019-03-24T06:26:41.655Z,58.36
2019-03-24T06:29:13.455Z,58.69
2019-03-24T06:32:17.387Z,58.55
2019-03-24T06:35:12.939Z,58.78
2019-03-24T06:38:15.218Z,58.44
2019-03-24T06:40:49.841Z,58.52
2019-03-24T06:44:01.560Z,58.63
2019-03-24T06:47:03.958Z,58.35
2019-03-24T06:49:38.370Z,58.55
2019-03-24T06:52:40.375Z,58.49
2019-03-24T06:58:39.267Z,58.28
2019-03-24T07:02:10.440Z,59.08
2019-03-24T07:05:01.608Z,60.15
2019-03-24T07:11:13.504Z,59.91
2019-03-24T07:14:13.452Z,61.44
2019-03-24T07:17:04.599Z,61.09
2019-03-24T07:20:06.788Z,61.13
2019-03-24T07:22:51.784Z,61.78
2019-03-24T07:25:36.746Z,61.48
2019-03-24T07:33:47.606Z,60.57
2019-03-24T07:36:21.659Z,59.92
2019-03-24T07:39:12.313Z,60.02
2019-03-24T07:42:15.627Z,58.51
2019-03-24T07:45:07.479Z,58.72
2019-03-24T07:48:00.392Z,57.77
2019-03-24T07:50:51.898Z,58.23
2019-03-24T07:53:53.748Z,57.93
2019-03-24T07:56:45.743Z,57.03
2019-03-24T07:59:47.413Z,56.68
2019-03-24T08:05:18.293Z,55.66
2019-03-24T08:08:10.993Z,56.22
2019-03-24T08:13:57.790Z,56.93
2019-03-24T08:16:50.670Z,56.70
2019-03-24T08:20:00.674Z,56.48
2019-03-24T08:22:51.917Z,55.82
2019-03-24T08:28:39.831Z,54.94
2019-03-24T08:31:31.115Z,53.81
2019-03-24T08:34:03.023Z,53.62
2019-03-24T08:37:13.135Z,54.69
2019-03-24T08:42:51.447Z,53.92
2019-03-24T08:54:06.604Z,51.35
2019-03-24T08:56:52.188Z,51.44
2019-03-24T09:02:09.107Z,53.73
2019-03-24T09:05:11.607Z,54.59
2019-03-24T09:13:54.976Z,52.54
2019-03-24T09:16:56.754Z,52.10
2019-03-24T09:19:42.399Z,53.03
2019-03-24T09:22:26.315Z,52.77
2019-03-24T09:28:14.703Z,50.93
2019-03-24T09:31:07.887Z,46.55
2019-03-24T09:36:43.316Z,47.92
2019-03-24T09:39:22.358Z,44.13
2019-03-24T09:42:13.675Z,37.76
2019-03-24T09:45:04.907Z,29.47
2019-03-24T09:47:56.113Z,29.24
2019-03-24T09:53:33.193Z,25.12
2019-03-24T10:01:53.212Z,16.75
2019-03-24T10:05:19.381Z,19.38
2019-03-24T10:10:49.975Z,21.48
2019-03-24T10:13:22.821Z,18.61
2019-03-24T10:16:25.024Z,15.83
2019-03-24T10:18:59.574Z,18.87
2019-03-24T10:22:01.824Z,20.03
2019-03-24T10:27:30.603Z,19.56
2019-03-24T10:30:13.388Z,17.42
2019-03-24T10:32:47.413Z,16.30
2019-03-24T10:35:38.543Z,15.14
2019-03-24T10:38:48.580Z,15.05
2019-03-24T10:44:25.618Z,20.30
2019-03-24T10:46:57.765Z,16.14
2019-03-24T10:49:48.939Z,14.95
2019-03-24T10:52:40.211Z,21.49
2019-03-24T10:58:37.289Z,27.79
2019-03-24T11:04:26.594Z,36.31
2019-03-24T11:07:10.023Z,39.56
2019-03-24T11:09:52.537Z,39.57
2019-03-24T11:18:32.595Z,35.52
2019-03-24T11:21:23.785Z,34.82
2019-03-24T11:24:15.038Z,33.87
2019-03-24T11:27:07.178Z,36.35
2019-03-24T11:30:00.034Z,38.50
2019-03-24T11:35:34.697Z,35.14
2019-03-24T11:38:44.684Z,32.66
2019-03-24T11:41:54.674Z,30.71
2019-03-24T11:45:04.669Z,30.67
2019-03-24T11:47:55.813Z,30.91
2019-03-24T11:56:13.942Z,33.15
2019-03-24T11:59:15.891Z,31.82
2019-03-24T12:01:47.690Z,33.18
2019-03-24T12:04:50.470Z,35.47
2019-03-24T12:07:34.522Z,36.11
2019-03-24T12:13:23.480Z,34.47
2019-03-24T12:16:08.591Z,35.87
2019-03-24T12:18:59.819Z,34.89
2019-03-24T12:25:07.602Z,30.37
2019-03-24T12:30:38.855Z,27.98
2019-03-24T12:33:21.602Z,27.04
2019-03-24T12:35:54.172Z,27.58
2019-03-24T12:38:56.077Z,27.70
2019-03-24T12:41:30.490Z,28.86
2019-03-24T12:44:33.092Z,29.23
2019-03-24T12:47:05.893Z,29.26
2019-03-24T12:49:49.378Z,31.46
2019-03-24T12:52:32.261Z,32.21
2019-03-24T12:55:06.255Z,29.77
2019-03-24T12:58:08.253Z,27.91
2019-03-24T13:03:56.028Z,26.68
2019-03-24T13:06:41.240Z,25.90
2019-03-24T13:09:13.220Z,27.61
2019-03-24T13:12:15.726Z,26.29
2019-03-24T13:15:01.030Z,25.49
2019-03-24T13:17:33.570Z,24.54
2019-03-24T13:20:38.598Z,25.13
2019-03-24T13:26:05.870Z,30.10
2019-03-24T13:28:38.240Z,30.22
2019-03-24T13:31:40.684Z,30.19
2019-03-24T13:34:24.375Z,29.81
2019-03-24T13:43:03.988Z,30.01
2019-03-24T13:51:43.998Z,33.56
2019-03-24T13:54:35.168Z,33.23
2019-03-24T13:57:37.303Z,33.99
2019-03-24T14:00:40.409Z,32.34
2019-03-24T14:03:25.465Z,32.04
2019-03-24T14:06:16.304Z,30.49
2019-03-24T14:09:19.236Z,29.73
2019-03-24T14:14:57.761Z,30.36
2019-03-24T14:17:48.948Z,29.62
2019-03-24T14:23:33.632Z,28.86
2019-03-24T14:28:52.345Z,28.62
2019-03-24T14:31:43.493Z,29.54
2019-03-24T14:34:33.747Z,30.80
2019-03-24T14:37:25.719Z,33.25
2019-03-24T14:43:24.453Z,35.67
2019-03-24T14:45:56.478Z,37.26
2019-03-24T14:48:47.612Z,37.50
2019-03-24T14:54:04.617Z,36.87
2019-03-24T14:57:06.999Z,36.37
2019-03-24T15:02:40.778Z,33.48
2019-03-24T15:05:12.826Z,32.40
2019-03-24T15:08:15.050Z,33.60
2019-03-24T15:10:49.471Z,33.14
2019-03-24T15:13:40.731Z,34.23
2019-03-24T15:16:42.594Z,35.86
2019-03-24T15:21:58.677Z,35.77
2019-03-24T15:30:51.824Z,33.82
2019-03-24T15:33:36.895Z,35.35
2019-03-24T15:44:56.669Z,35.65
2019-03-24T15:47:28.760Z,34.70
2019-03-24T15:50:19.945Z,34.97
2019-03-24T15:53:22.526Z,38.14
2019-03-24T16:02:03.232Z,41.14
2019-03-24T16:04:54.374Z,40.89
2019-03-24T16:07:56.623Z,41.23
2019-03-24T16:10:35.127Z,40.90
2019-03-24T16:16:10.501Z,39.44
2019-03-24T16:18:44.871Z,40.04
2019-03-24T16:21:31.087Z,40.32
2019-03-24T16:26:49.442Z,40.22
2019-03-24T16:29:51.933Z,39.84
2019-03-24T16:32:25.262Z,40.33
2019-03-24T16:43:39.608Z,41.72
2019-03-24T16:46:12.191Z,42.11
2019-03-24T16:52:00.985Z,42.05
2019-03-24T16:54:44.157Z,42.41
2019-03-24T16:57:27.156Z,41.87
2019-03-24T17:08:52.098Z,42.79
2019-03-24T17:11:43.346Z,42.97
2019-03-24T17:14:51.742Z,43.03
2019-03-24T17:28:57.569Z,43.87
2019-03-24T17:31:31.289Z,44.22
2019-03-24T17:39:51.384Z,45.24
2019-03-24T17:45:29.546Z,45.31
2019-03-24T17:48:35.296Z,45.33
2019-03-24T17:51:35.118Z,45.59
2019-03-24T17:54:18.876Z,45.62
2019-03-24T18:03:19.939Z,45.37
2019-03-24T18:12:11.378Z,46.53
2019-03-24T18:15:02.720Z,46.21
2019-03-24T18:17:53.884Z,46.34
2019-03-24T18:20:45.089Z,46.58
2019-03-24T18:23:36.230Z,46.67
2019-03-24T18:26:38.443Z,47.01
2019-03-24T18:29:25.560Z,47.77
2019-03-24T18:31:58.571Z,48.01
2019-03-24T18:37:55.102Z,47.95
2019-03-24T18:40:46.276Z,48.33
2019-03-24T18:46:41.471Z,49.47
2019-03-24T18:49:51.500Z,49.29
2019-03-24T18:52:42.789Z,48.32
2019-03-24T18:55:34.260Z,47.65
2019-03-24T18:58:25.351Z,47.43
2019-03-24T19:04:02.055Z,46.96
2019-03-24T19:06:53.292Z,45.08
2019-03-24T19:09:44.477Z,47.08
2019-03-24T19:12:16.409Z,49.45
2019-03-24T19:21:02.827Z,44.78
2019-03-24T19:23:55.845Z,45.94
2019-03-24T19:26:48.354Z,45.69
2019-03-24T19:29:22.944Z,44.25
2019-03-24T19:32:14.227Z,43.27
2019-03-24T19:41:30.855Z,51.04
2019-03-24T19:44:04.938Z,51.12
2019-03-24T20:01:16.599Z,56.60
2019-03-24T20:04:18.873Z,56.90
2019-03-24T20:07:02.533Z,58.33
2019-03-24T20:09:34.942Z,58.99
2019-03-24T20:12:26.154Z,59.01
2019-03-24T20:15:34.555Z,59.59
2019-03-24T20:18:25.789Z,59.88
2019-03-24T20:21:17.078Z,59.73
2019-03-24T20:33:32.710Z,60.79
2019-03-24T20:36:16.207Z,61.01
2019-03-24T20:44:30.680Z,61.65
2019-03-24T20:47:05.259Z,61.81
2019-03-24T20:50:07.534Z,61.77
2019-03-24T20:58:28.063Z,62.20
2019-03-24T21:01:19.594Z,62.46
2019-03-24T21:03:55.651Z,62.47
2019-03-24T21:07:08.197Z,62.72
2019-03-24T21:09:49.389Z,62.69
2019-03-24T21:12:59.410Z,62.58
2019-03-24T21:15:54.789Z,62.47
2019-03-24T21:18:46.188Z,62.64
2019-03-24T21:24:53.897Z,62.71
2019-03-24T21:27:27.467Z,62.86
2019-03-24T21:30:11.702Z,62.64
2019-03-24T21:32:45.508Z,62.46
2019-03-24T21:35:36.764Z,62.10
2019-03-24T21:38:38.580Z,61.86
2019-03-24T21:41:11.289Z,62.91
2019-03-24T21:44:02.464Z,62.95
2019-03-24T21:46:53.694Z,62.51
2019-03-24T21:49:44.930Z,63.00
2019-03-24T21:52:27.495Z,62.67
2019-03-24T21:55:18.652Z,62.27
2019-03-24T21:58:01.861Z,62.91
2019-03-24T22:00:42.521Z,63.43
2019-03-24T22:03:27.725Z,63.55
2019-03-24T22:09:02.290Z,64.31
2019-03-24T22:12:04.051Z,64.79
2019-03-24T22:14:48.852Z,64.46
2019-03-24T22:17:33.883Z,64.57
2019-03-24T22:20:48.199Z,64.81
2019-03-24T22:26:16.314Z,64.69
2019-03-24T22:31:52.617Z,64.29
2019-03-24T22:34:55.097Z,64.36
2019-03-24T22:37:27.603Z,64.38
2019-03-24T22:46:51.025Z,63.90
2019-03-24T22:52:24.879Z,64.50
2019-03-24T22:55:55.311Z,64.54
2019-03-24T23:04:24.133Z,64.63
2019-03-24T23:10:02.602Z,64.70
2019-03-24T23:13:24.164Z,64.71
2019-03-24T23:16:07.948Z,64.59
2019-03-24T23:24:44.690Z,65.02
2019-03-24T23:27:27.665Z,64.85
2019-03-24T23:30:01.993Z,65.68
2019-03-24T23:36:18.101Z,65.25
2019-03-24T23:48:24.269Z,65.89
